sensor_id;sensor_type;location;lat;lon;timestamp;pressure;altitude;pressure_sealevel;temperature;humidity
62510;BME280;48558;48.242;11.654;2023-03-19T00:04:07;95905.28;;;4.96;100.00
62510;BME280;48558;48.242;11.654;2023-03-19T00:08:20;95905.81;;;4.91;100.00
62510;BME280;48558;48.242;11.654;2023-03-19T00:12:34;95894.84;;;4.79;100.00
62510;BME280;48558;48.242;11.654;2023-03-19T00:16:47;95909.19;;;4.83;100.00
62510;BME280;48558;48.242;11.654;2023-03-19T00:20:59;95908.84;;;4.81;100.00
62510;BME280;48558;48.242;11.654;2023-03-19T00:25:12;95897.66;;;4.75;100.00
62510;BME280;48558;48.242;11.654;2023-03-19T00:29:35;95894.53;;;4.48;100.00
62510;BME280;48558;48.242;11.654;2023-03-19T00:33:51;95909.22;;;4.54;100.00
62510;BME280;48558;48.242;11.654;2023-03-19T00:38:04;95919.88;;;4.65;100.00
62510;BME280;48558;48.242;11.654;2023-03-19T00:42:17;95917.00;;;4.56;100.00
62510;BME280;48558;48.242;11.654;2023-03-19T00:46:29;95909.09;;;4.45;100.00
62510;BME280;48558;48.242;11.654;2023-03-19T00:50:52;95923.09;;;4.47;100.00
62510;BME280;48558;48.242;11.654;2023-03-19T00:55:05;95928.44;;;4.51;100.00
62510;BME280;48558;48.242;11.654;2023-03-19T00:59:18;95921.72;;;4.39;100.00
62510;BME280;48558;48.242;11.654;2023-03-19T01:03:30;95929.13;;;4.26;100.00
62510;BME280;48558;48.242;11.654;2023-03-19T01:07:43;95930.06;;;4.19;100.00
62510;BME280;48558;48.242;11.654;2023-03-19T01:11:55;95921.81;;;4.07;100.00
62510;BME280;48558;48.242;11.654;2023-03-19T01:16:09;95934.28;;;3.92;100.00
62510;BME280;48558;48.242;11.654;2023-03-19T01:20:22;95927.03;;;3.85;100.00
62510;BME280;48558;48.242;11.654;2023-03-19T01:24:35;95933.72;;;3.84;100.00
62510;BME280;48558;48.242;11.654;2023-03-19T01:28:48;95919.59;;;3.86;100.00
62510;BME280;48558;48.242;11.654;2023-03-19T01:33:00;95925.00;;;3.73;100.00
62510;BME280;48558;48.242;11.654;2023-03-19T01:37:13;95930.69;;;3.79;100.00
62510;BME280;48558;48.242;11.654;2023-03-19T01:41:25;95930.97;;;3.84;100.00
62510;BME280;48558;48.242;11.654;2023-03-19T01:45:40;95935.84;;;3.77;100.00
62510;BME280;48558;48.242;11.654;2023-03-19T01:49:55;95932.84;;;3.87;100.00
62510;BME280;48558;48.242;11.654;2023-03-19T01:54:12;95933.16;;;3.89;100.00
62510;BME280;48558;48.242;11.654;2023-03-19T01:58:26;95928.41;;;3.77;100.00
62510;BME280;48558;48.242;11.654;2023-03-19T02:02:40;95927.13;;;3.66;100.00
62510;BME280;48558;48.242;11.654;2023-03-19T02:06:55;95928.13;;;3.72;100.00
62510;BME280;48558;48.242;11.654;2023-03-19T02:11:09;95938.91;;;3.62;100.00
62510;BME280;48558;48.242;11.654;2023-03-19T02:15:22;95932.59;;;3.66;100.00
62510;BME280;48558;48.242;11.654;2023-03-19T02:19:44;95928.41;;;3.61;100.00
62510;BME280;48558;48.242;11.654;2023-03-19T02:24:11;95938.91;;;3.62;100.00
62510;BME280;48558;48.242;11.654;2023-03-19T02:28:29;95953.00;;;3.61;100.00
62510;BME280;48558;48.242;11.654;2023-03-19T02:32:43;95943.75;;;3.39;100.00
62510;BME280;48558;48.242;11.654;2023-03-19T02:37:23;95937.59;;;3.51;100.00
62510;BME280;48558;48.242;11.654;2023-03-19T02:41:40;95937.53;;;3.54;100.00
62510;BME280;48558;48.242;11.654;2023-03-19T02:45:53;95936.78;;;3.70;100.00
62510;BME280;48558;48.242;11.654;2023-03-19T02:50:06;95937.63;;;3.83;100.00
62510;BME280;48558;48.242;11.654;2023-03-19T02:54:20;95946.31;;;3.78;100.00
62510;BME280;48558;48.242;11.654;2023-03-19T02:58:32;95946.50;;;3.71;100.00
62510;BME280;48558;48.242;11.654;2023-03-19T03:02:45;95953.06;;;3.74;100.00
62510;BME280;48558;48.242;11.654;2023-03-19T03:06:58;95948.13;;;3.52;100.00
62510;BME280;48558;48.242;11.654;2023-03-19T03:11:10;95948.00;;;3.40;100.00
62510;BME280;48558;48.242;11.654;2023-03-19T03:15:24;95960.47;;;3.41;100.00
62510;BME280;48558;48.242;11.654;2023-03-19T03:19:36;95952.31;;;3.57;100.00
62510;BME280;48558;48.242;11.654;2023-03-19T03:23:49;95969.44;;;3.41;100.00
62510;BME280;48558;48.242;11.654;2023-03-19T03:28:02;95941.75;;;3.39;100.00
62510;BME280;48558;48.242;11.654;2023-03-19T03:32:14;95979.03;;;3.66;100.00
62510;BME280;48558;48.242;11.654;2023-03-19T03:36:27;95974.75;;;3.64;100.00
62510;BME280;48558;48.242;11.654;2023-03-19T03:40:40;95968.91;;;3.82;100.00
62510;BME280;48558;48.242;11.654;2023-03-19T03:44:53;95965.28;;;3.85;100.00
62510;BME280;48558;48.242;11.654;2023-03-19T03:49:07;95968.03;;;3.85;100.00
62510;BME280;48558;48.242;11.654;2023-03-19T03:53:19;95947.69;;;3.70;100.00
62510;BME280;48558;48.242;11.654;2023-03-19T03:57:32;95966.91;;;3.67;100.00
62510;BME280;48558;48.242;11.654;2023-03-19T04:01:45;95974.56;;;3.55;100.00
62510;BME280;48558;48.242;11.654;2023-03-19T04:05:57;95988.56;;;3.57;100.00
62510;BME280;48558;48.242;11.654;2023-03-19T04:10:11;95987.81;;;3.57;100.00
62510;BME280;48558;48.242;11.654;2023-03-19T04:14:24;95991.22;;;3.61;100.00
62510;BME280;48558;48.242;11.654;2023-03-19T04:18:37;95993.38;;;3.70;100.00
62510;BME280;48558;48.242;11.654;2023-03-19T04:22:50;95986.63;;;3.74;100.00
62510;BME280;48558;48.242;11.654;2023-03-19T04:27:03;95975.69;;;3.74;100.00
62510;BME280;48558;48.242;11.654;2023-03-19T04:31:25;95998.41;;;3.87;100.00
62510;BME280;48558;48.242;11.654;2023-03-19T04:35:47;95990.66;;;3.86;100.00
62510;BME280;48558;48.242;11.654;2023-03-19T04:40:00;96000.47;;;3.99;100.00
62510;BME280;48558;48.242;11.654;2023-03-19T04:44:13;95991.44;;;4.02;100.00
62510;BME280;48558;48.242;11.654;2023-03-19T04:48:26;95981.84;;;4.10;100.00
62510;BME280;48558;48.242;11.654;2023-03-19T04:52:39;96011.00;;;4.17;100.00
62510;BME280;48558;48.242;11.654;2023-03-19T04:56:52;96001.59;;;4.18;100.00
62510;BME280;48558;48.242;11.654;2023-03-19T05:01:04;96009.34;;;4.35;100.00
62510;BME280;48558;48.242;11.654;2023-03-19T05:05:17;96022.34;;;4.48;100.00
62510;BME280;48558;48.242;11.654;2023-03-19T05:09:39;96016.22;;;4.72;100.00
62510;BME280;48558;48.242;11.654;2023-03-19T05:13:54;96013.19;;;4.83;100.00
62510;BME280;48558;48.242;11.654;2023-03-19T05:18:06;96008.91;;;4.82;100.00
62510;BME280;48558;48.242;11.654;2023-03-19T05:22:29;96026.25;;;4.91;100.00
62510;BME280;48558;48.242;11.654;2023-03-19T05:26:42;96026.72;;;5.02;100.00
62510;BME280;48558;48.242;11.654;2023-03-19T05:30:55;96038.06;;;5.17;100.00
62510;BME280;48558;48.242;11.654;2023-03-19T05:35:07;96032.41;;;5.24;100.00
62510;BME280;48558;48.242;11.654;2023-03-19T05:39:20;96045.34;;;5.36;100.00
62510;BME280;48558;48.242;11.654;2023-03-19T05:43:33;96057.47;;;5.51;100.00
62510;BME280;48558;48.242;11.654;2023-03-19T05:47:46;96058.00;;;5.59;100.00
62510;BME280;48558;48.242;11.654;2023-03-19T05:52:00;96053.28;;;5.59;100.00
62510;BME280;48558;48.242;11.654;2023-03-19T05:56:16;96072.41;;;5.75;100.00
62510;BME280;48558;48.242;11.654;2023-03-19T06:00:28;96070.16;;;5.87;100.00
62510;BME280;48558;48.242;11.654;2023-03-19T06:04:41;96072.34;;;6.17;100.00
62510;BME280;48558;48.242;11.654;2023-03-19T06:08:54;96083.53;;;6.60;100.00
62510;BME280;48558;48.242;11.654;2023-03-19T06:13:06;96094.69;;;6.78;100.00
62510;BME280;48558;48.242;11.654;2023-03-19T06:17:19;96093.13;;;6.77;100.00
62510;BME280;48558;48.242;11.654;2023-03-19T06:21:31;96100.75;;;7.07;100.00
62510;BME280;48558;48.242;11.654;2023-03-19T06:25:44;96115.69;;;7.41;100.00
62510;BME280;48558;48.242;11.654;2023-03-19T06:30:07;96126.69;;;7.41;100.00
62510;BME280;48558;48.242;11.654;2023-03-19T06:34:21;96123.16;;;7.40;100.00
62510;BME280;48558;48.242;11.654;2023-03-19T06:38:44;96133.88;;;7.60;100.00
62510;BME280;48558;48.242;11.654;2023-03-19T06:42:57;96126.56;;;7.66;100.00
62510;BME280;48558;48.242;11.654;2023-03-19T06:47:09;96132.78;;;7.79;100.00
62510;BME280;48558;48.242;11.654;2023-03-19T06:51:22;96148.50;;;8.00;100.00
62510;BME280;48558;48.242;11.654;2023-03-19T06:55:35;96148.72;;;8.15;100.00
62510;BME280;48558;48.242;11.654;2023-03-19T06:59:48;96142.50;;;8.23;100.00
62510;BME280;48558;48.242;11.654;2023-03-19T07:04:01;96151.03;;;8.38;100.00
62510;BME280;48558;48.242;11.654;2023-03-19T07:08:14;96148.91;;;8.42;100.00
62510;BME280;48558;48.242;11.654;2023-03-19T07:12:27;96156.94;;;8.58;100.00
62510;BME280;48558;48.242;11.654;2023-03-19T07:16:39;96166.78;;;8.68;100.00
62510;BME280;48558;48.242;11.654;2023-03-19T07:20:52;96169.97;;;8.66;100.00
62510;BME280;48558;48.242;11.654;2023-03-19T07:25:04;96186.75;;;8.90;100.00
62510;BME280;48558;48.242;11.654;2023-03-19T07:29:27;96195.25;;;9.23;100.00
62510;BME280;48558;48.242;11.654;2023-03-19T07:33:41;96200.81;;;9.50;100.00
62510;BME280;48558;48.242;11.654;2023-03-19T07:37:53;96208.81;;;9.75;100.00
62510;BME280;48558;48.242;11.654;2023-03-19T07:42:06;96216.31;;;9.93;100.00
62510;BME280;48558;48.242;11.654;2023-03-19T07:46:19;96231.34;;;10.01;100.00
62510;BME280;48558;48.242;11.654;2023-03-19T07:50:32;96229.53;;;10.16;100.00
62510;BME280;48558;48.242;11.654;2023-03-19T07:54:55;96216.31;;;10.20;100.00
62510;BME280;48558;48.242;11.654;2023-03-19T07:59:08;96211.25;;;10.09;100.00
62510;BME280;48558;48.242;11.654;2023-03-19T08:03:22;96216.47;;;10.26;100.00
62510;BME280;48558;48.242;11.654;2023-03-19T08:07:35;96216.56;;;10.49;100.00
62510;BME280;48558;48.242;11.654;2023-03-19T08:11:48;96222.81;;;10.68;100.00
62510;BME280;48558;48.242;11.654;2023-03-19T08:16:00;96225.25;;;10.75;100.00
62510;BME280;48558;48.242;11.654;2023-03-19T08:20:17;96217.91;;;10.72;100.00
62510;BME280;48558;48.242;11.654;2023-03-19T08:24:29;96218.97;;;11.16;100.00
62510;BME280;48558;48.242;11.654;2023-03-19T08:28:42;96229.69;;;11.23;100.00
62510;BME280;48558;48.242;11.654;2023-03-19T08:33:04;96231.72;;;11.46;100.00
62510;BME280;48558;48.242;11.654;2023-03-19T08:37:21;96229.16;;;11.34;100.00
62510;BME280;48558;48.242;11.654;2023-03-19T08:41:33;96232.97;;;11.69;100.00
62510;BME280;48558;48.242;11.654;2023-03-19T08:45:46;96238.09;;;11.29;100.00
62510;BME280;48558;48.242;11.654;2023-03-19T08:49:58;96242.34;;;11.06;100.00
62510;BME280;48558;48.242;11.654;2023-03-19T08:54:11;96264.16;;;11.04;100.00
62510;BME280;48558;48.242;11.654;2023-03-19T08:58:25;96245.72;;;11.43;100.00
62510;BME280;48558;48.242;11.654;2023-03-19T09:02:38;96246.53;;;11.34;100.00
62510;BME280;48558;48.242;11.654;2023-03-19T09:06:51;96264.06;;;11.64;100.00
62510;BME280;48558;48.242;11.654;2023-03-19T09:11:04;96263.25;;;11.40;100.00
62510;BME280;48558;48.242;11.654;2023-03-19T09:15:17;96281.63;;;11.28;100.00
62510;BME280;48558;48.242;11.654;2023-03-19T09:19:30;96283.34;;;11.17;100.00
62510;BME280;48558;48.242;11.654;2023-03-19T09:23:43;96268.69;;;10.83;100.00
62510;BME280;48558;48.242;11.654;2023-03-19T09:27:56;96285.75;;;11.57;100.00
62510;BME280;48558;48.242;11.654;2023-03-19T09:32:08;96288.63;;;11.95;100.00
62510;BME280;48558;48.242;11.654;2023-03-19T09:36:21;96292.03;;;11.90;100.00
62510;BME280;48558;48.242;11.654;2023-03-19T09:40:46;96291.75;;;12.50;100.00
62510;BME280;48558;48.242;11.654;2023-03-19T09:45:00;96295.13;;;12.98;100.00
62510;BME280;48558;48.242;11.654;2023-03-19T09:49:41;96287.88;;;13.15;100.00
62510;BME280;48558;48.242;11.654;2023-03-19T09:53:59;96296.84;;;12.95;100.00
62510;BME280;48558;48.242;11.654;2023-03-19T09:58:17;96295.31;;;12.65;100.00
62510;BME280;48558;48.242;11.654;2023-03-19T10:02:40;96304.91;;;12.40;100.00
62510;BME280;48558;48.242;11.654;2023-03-19T10:16:31;96291.06;;;12.02;100.00
62510;BME280;48558;48.242;11.654;2023-03-19T10:20:53;96293.22;;;12.89;100.00
62510;BME280;48558;48.242;11.654;2023-03-19T10:25:14;96294.75;;;13.05;100.00
62510;BME280;48558;48.242;11.654;2023-03-19T10:29:32;96288.91;;;14.21;100.00
62510;BME280;48558;48.242;11.654;2023-03-19T10:34:06;96289.00;;;13.72;100.00
62510;BME280;48558;48.242;11.654;2023-03-19T10:38:31;96284.09;;;14.88;100.00
62510;BME280;48558;48.242;11.654;2023-03-19T10:43:13;96287.88;;;14.85;100.00
62510;BME280;48558;48.242;11.654;2023-03-19T10:47:28;96290.94;;;15.18;100.00
62510;BME280;48558;48.242;11.654;2023-03-19T10:51:49;96297.16;;;14.16;100.00
62510;BME280;48558;48.242;11.654;2023-03-19T10:56:05;96300.66;;;14.51;100.00
62510;BME280;48558;48.242;11.654;2023-03-19T11:00:32;96289.44;;;15.17;100.00
62510;BME280;48558;48.242;11.654;2023-03-19T11:04:46;96285.84;;;14.85;100.00
62510;BME280;48558;48.242;11.654;2023-03-19T11:09:13;96284.84;;;14.63;100.00
62510;BME280;48558;48.242;11.654;2023-03-19T11:13:33;96268.31;;;15.36;100.00
62510;BME280;48558;48.242;11.654;2023-03-19T11:17:56;96273.16;;;14.59;100.00
62510;BME280;48558;48.242;11.654;2023-03-19T11:22:16;96266.66;;;13.61;100.00
62510;BME280;48558;48.242;11.654;2023-03-19T11:26:34;96263.44;;;13.33;100.00
62510;BME280;48558;48.242;11.654;2023-03-19T11:35:41;96252.00;;;14.01;100.00
62510;BME280;48558;48.242;11.654;2023-03-19T11:49:13;96256.63;;;14.70;100.00
62510;BME280;48558;48.242;11.654;2023-03-19T11:53:56;96229.16;;;13.71;100.00
62510;BME280;48558;48.242;11.654;2023-03-19T11:58:39;96243.53;;;13.70;100.00
62510;BME280;48558;48.242;11.654;2023-03-19T12:08:07;96242.19;;;14.46;100.00
62510;BME280;48558;48.242;11.654;2023-03-19T12:12:51;96226.97;;;14.41;100.00
62510;BME280;48558;48.242;11.654;2023-03-19T12:35:35;96212.22;;;17.28;77.06
62510;BME280;48558;48.242;11.654;2023-03-19T12:40:04;96192.13;;;18.72;61.66
62510;BME280;48558;48.242;11.654;2023-03-19T12:44:20;96194.69;;;18.70;63.96
62510;BME280;48558;48.242;11.654;2023-03-19T12:48:44;96198.56;;;16.04;71.65
62510;BME280;48558;48.242;11.654;2023-03-19T12:53:10;96195.72;;;18.20;65.75
62510;BME280;48558;48.242;11.654;2023-03-19T12:57:50;96195.19;;;18.74;60.17
62510;BME280;48558;48.242;11.654;2023-03-19T13:02:20;96188.19;;;17.99;63.44
62510;BME280;48558;48.242;11.654;2023-03-19T13:06:43;96178.72;;;17.05;72.82
62510;BME280;48558;48.242;11.654;2023-03-19T13:11:04;96189.22;;;16.13;73.91
62510;BME280;48558;48.242;11.654;2023-03-19T13:19:51;96165.91;;;15.15;91.24
62510;BME280;48558;48.242;11.654;2023-03-19T13:24:23;96175.25;;;15.12;90.00
62510;BME280;48558;48.242;11.654;2023-03-19T13:29:07;96184.94;;;14.85;90.16
62510;BME280;48558;48.242;11.654;2023-03-19T13:33:24;96174.47;;;14.74;95.49
62510;BME280;48558;48.242;11.654;2023-03-19T13:37:41;96165.63;;;14.76;96.09
62510;BME280;48558;48.242;11.654;2023-03-19T13:46:48;96167.97;;;14.06;100.00
62510;BME280;48558;48.242;11.654;2023-03-19T13:51:08;96164.09;;;14.23;98.21
62510;BME280;48558;48.242;11.654;2023-03-19T13:55:54;96160.81;;;14.25;100.00
62510;BME280;48558;48.242;11.654;2023-03-19T14:05:14;96154.97;;;14.43;100.00
62510;BME280;48558;48.242;11.654;2023-03-19T14:09:38;96161.88;;;14.02;100.00
62510;BME280;48558;48.242;11.654;2023-03-19T14:13:59;96163.50;;;14.14;100.00
62510;BME280;48558;48.242;11.654;2023-03-19T14:18:17;96160.91;;;14.87;96.64
62510;BME280;48558;48.242;11.654;2023-03-19T14:27:35;96146.63;;;18.25;66.35
62510;BME280;48558;48.242;11.654;2023-03-19T14:31:51;96148.59;;;18.76;71.48
62510;BME280;48558;48.242;11.654;2023-03-19T14:36:07;96143.88;;;18.14;63.53
62510;BME280;48558;48.242;11.654;2023-03-19T14:40:26;96144.81;;;18.68;60.94
62510;BME280;48558;48.242;11.654;2023-03-19T14:54:37;96136.06;;;16.44;62.19
62510;BME280;48558;48.242;11.654;2023-03-19T14:58:55;96127.63;;;16.05;64.74
62510;BME280;48558;48.242;11.654;2023-03-19T15:03:40;96118.75;;;16.07;67.35
62510;BME280;48558;48.242;11.654;2023-03-19T15:08:00;96108.94;;;16.94;66.88
62510;BME280;48558;48.242;11.654;2023-03-19T15:21:13;96102.13;;;15.59;79.60
62510;BME280;48558;48.242;11.654;2023-03-19T15:25:26;96112.28;;;15.67;79.56
62510;BME280;48558;48.242;11.654;2023-03-19T15:29:39;96101.09;;;15.51;81.37
62510;BME280;48558;48.242;11.654;2023-03-19T15:33:51;96108.91;;;16.17;71.56
62510;BME280;48558;48.242;11.654;2023-03-19T15:38:12;96113.34;;;15.75;67.59
62510;BME280;48558;48.242;11.654;2023-03-19T15:42:29;96117.03;;;15.50;71.62
62510;BME280;48558;48.242;11.654;2023-03-19T15:46:43;96103.47;;;15.27;74.18
62510;BME280;48558;48.242;11.654;2023-03-19T15:50:58;96116.91;;;15.28;73.47
62510;BME280;48558;48.242;11.654;2023-03-19T15:55:13;96100.09;;;15.12;77.74
62510;BME280;48558;48.242;11.654;2023-03-19T15:59:27;96108.72;;;15.08;91.05
62510;BME280;48558;48.242;11.654;2023-03-19T16:03:48;96112.94;;;14.98;88.05
62510;BME280;48558;48.242;11.654;2023-03-19T16:08:14;96105.78;;;14.55;97.20
62510;BME280;48558;48.242;11.654;2023-03-19T16:12:36;96115.41;;;14.54;95.25
62510;BME280;48558;48.242;11.654;2023-03-19T16:16:51;96110.81;;;14.25;93.41
62510;BME280;48558;48.242;11.654;2023-03-19T16:21:18;96128.84;;;14.09;99.79
62510;BME280;48558;48.242;11.654;2023-03-19T16:25:31;96135.13;;;14.04;100.00
62510;BME280;48558;48.242;11.654;2023-03-19T16:29:55;96133.63;;;13.83;100.00
62510;BME280;48558;48.242;11.654;2023-03-19T16:34:23;96134.34;;;13.38;100.00
62510;BME280;48558;48.242;11.654;2023-03-19T16:38:56;96135.16;;;13.24;100.00
62510;BME280;48558;48.242;11.654;2023-03-19T16:43:19;96135.97;;;13.10;100.00
62510;BME280;48558;48.242;11.654;2023-03-19T16:47:34;96139.38;;;12.84;100.00
62510;BME280;48558;48.242;11.654;2023-03-19T16:51:47;96143.81;;;12.62;100.00
62510;BME280;48558;48.242;11.654;2023-03-19T16:56:00;96155.47;;;12.37;100.00
62510;BME280;48558;48.242;11.654;2023-03-19T17:00:14;96148.50;;;12.12;100.00
62510;BME280;48558;48.242;11.654;2023-03-19T17:04:27;96157.13;;;11.90;100.00
62510;BME280;48558;48.242;11.654;2023-03-19T17:08:40;96151.63;;;11.67;100.00
62510;BME280;48558;48.242;11.654;2023-03-19T17:12:54;96159.59;;;11.50;100.00
62510;BME280;48558;48.242;11.654;2023-03-19T17:17:18;96171.34;;;11.36;100.00
62510;BME280;48558;48.242;11.654;2023-03-19T17:21:31;96168.25;;;11.19;100.00
62510;BME280;48558;48.242;11.654;2023-03-19T17:25:44;96178.88;;;11.12;100.00
62510;BME280;48558;48.242;11.654;2023-03-19T17:29:57;96180.69;;;10.91;100.00
62510;BME280;48558;48.242;11.654;2023-03-19T17:34:15;96164.44;;;10.84;100.00
62510;BME280;48558;48.242;11.654;2023-03-19T17:38:33;96182.13;;;10.77;100.00
62510;BME280;48558;48.242;11.654;2023-03-19T17:42:46;96178.63;;;10.68;100.00
62510;BME280;48558;48.242;11.654;2023-03-19T17:46:59;96182.00;;;10.63;100.00
62510;BME280;48558;48.242;11.654;2023-03-19T17:51:15;96184.16;;;10.59;100.00
62510;BME280;48558;48.242;11.654;2023-03-19T17:55:37;96182.97;;;10.51;100.00
62510;BME280;48558;48.242;11.654;2023-03-19T17:59:50;96193.88;;;10.45;100.00
62510;BME280;48558;48.242;11.654;2023-03-19T18:04:15;96186.69;;;10.39;100.00
62510;BME280;48558;48.242;11.654;2023-03-19T18:08:30;96191.16;;;10.27;100.00
62510;BME280;48558;48.242;11.654;2023-03-19T18:12:42;96184.28;;;10.14;100.00
62510;BME280;48558;48.242;11.654;2023-03-19T18:16:55;96191.47;;;10.11;100.00
62510;BME280;48558;48.242;11.654;2023-03-19T18:21:17;96202.69;;;9.98;100.00
62510;BME280;48558;48.242;11.654;2023-03-19T18:25:30;96196.56;;;9.94;100.00
62510;BME280;48558;48.242;11.654;2023-03-19T18:29:46;96202.38;;;9.78;100.00
62510;BME280;48558;48.242;11.654;2023-03-19T18:34:02;96205.44;;;9.71;100.00
62510;BME280;48558;48.242;11.654;2023-03-19T18:38:20;96190.56;;;9.69;100.00
62510;BME280;48558;48.242;11.654;2023-03-19T18:42:33;96201.28;;;9.67;100.00
62510;BME280;48558;48.242;11.654;2023-03-19T18:46:46;96212.31;;;9.67;100.00
62510;BME280;48558;48.242;11.654;2023-03-19T18:50:58;96214.16;;;9.52;100.00
62510;BME280;48558;48.242;11.654;2023-03-19T18:55:12;96216.09;;;9.33;100.00
62510;BME280;48558;48.242;11.654;2023-03-19T18:59:27;96210.88;;;9.26;100.00
62510;BME280;48558;48.242;11.654;2023-03-19T19:03:45;96217.75;;;9.21;100.00
62510;BME280;48558;48.242;11.654;2023-03-19T19:08:02;96227.28;;;9.29;100.00
62510;BME280;48558;48.242;11.654;2023-03-19T19:12:15;96226.47;;;9.11;100.00
62510;BME280;48558;48.242;11.654;2023-03-19T19:16:34;96219.66;;;8.94;100.00
62510;BME280;48558;48.242;11.654;2023-03-19T19:20:50;96232.53;;;8.97;100.00
62510;BME280;48558;48.242;11.654;2023-03-19T19:25:04;96234.38;;;8.91;100.00
62510;BME280;48558;48.242;11.654;2023-03-19T19:29:22;96237.56;;;8.89;100.00
62510;BME280;48558;48.242;11.654;2023-03-19T19:33:36;96241.41;;;8.92;100.00
62510;BME280;48558;48.242;11.654;2023-03-19T19:37:49;96246.94;;;9.01;100.00
62510;BME280;48558;48.242;11.654;2023-03-19T19:42:02;96243.75;;;9.02;100.00
62510;BME280;48558;48.242;11.654;2023-03-19T19:46:16;96251.09;;;9.05;100.00
62510;BME280;48558;48.242;11.654;2023-03-19T19:50:30;96259.28;;;9.18;100.00
62510;BME280;48558;48.242;11.654;2023-03-19T19:54:43;96279.59;;;9.60;100.00
62510;BME280;48558;48.242;11.654;2023-03-19T19:58:56;96290.28;;;10.34;100.00
62510;BME280;48558;48.242;11.654;2023-03-19T20:03:24;96295.66;;;10.47;100.00
62510;BME280;48558;48.242;11.654;2023-03-19T20:07:38;96289.59;;;10.75;100.00
62510;BME280;48558;48.242;11.654;2023-03-19T20:11:51;96307.28;;;10.69;100.00
62510;BME280;48558;48.242;11.654;2023-03-19T20:16:11;96302.97;;;10.59;100.00
62510;BME280;48558;48.242;11.654;2023-03-19T20:20:26;96308.81;;;10.52;100.00
62510;BME280;48558;48.242;11.654;2023-03-19T20:24:43;96307.44;;;10.47;100.00
62510;BME280;48558;48.242;11.654;2023-03-19T20:29:14;96319.44;;;10.26;100.00
62510;BME280;48558;48.242;11.654;2023-03-19T20:33:37;96316.38;;;10.15;100.00
62510;BME280;48558;48.242;11.654;2023-03-19T20:38:00;96314.81;;;10.14;100.00
62510;BME280;48558;48.242;11.654;2023-03-19T20:42:31;96315.69;;;10.02;100.00
62510;BME280;48558;48.242;11.654;2023-03-19T20:46:45;96333.78;;;10.03;100.00
62510;BME280;48558;48.242;11.654;2023-03-19T20:51:01;96341.91;;;10.06;100.00
62510;BME280;48558;48.242;11.654;2023-03-19T20:55:16;96356.78;;;10.00;100.00
62510;BME280;48558;48.242;11.654;2023-03-19T20:59:30;96356.63;;;9.94;100.00
62510;BME280;48558;48.242;11.654;2023-03-19T21:03:43;96357.69;;;9.79;100.00
62510;BME280;48558;48.242;11.654;2023-03-19T21:07:55;96362.13;;;9.85;100.00
62510;BME280;48558;48.242;11.654;2023-03-19T21:12:28;96369.81;;;9.90;100.00
62510;BME280;48558;48.242;11.654;2023-03-19T21:16:42;96377.34;;;9.99;100.00
62510;BME280;48558;48.242;11.654;2023-03-19T21:21:05;96382.75;;;9.63;100.00
62510;BME280;48558;48.242;11.654;2023-03-19T21:25:22;96381.31;;;9.49;100.00
62510;BME280;48558;48.242;11.654;2023-03-19T21:29:36;96395.16;;;9.58;100.00
62510;BME280;48558;48.242;11.654;2023-03-19T21:33:49;96384.22;;;9.46;100.00
62510;BME280;48558;48.242;11.654;2023-03-19T21:38:02;96407.69;;;9.50;100.00
62510;BME280;48558;48.242;11.654;2023-03-19T21:42:17;96400.09;;;9.32;100.00
62510;BME280;48558;48.242;11.654;2023-03-19T21:46:32;96405.97;;;9.13;100.00
62510;BME280;48558;48.242;11.654;2023-03-19T21:50:45;96409.03;;;9.15;100.00
62510;BME280;48558;48.242;11.654;2023-03-19T21:54:58;96416.06;;;9.16;100.00
62510;BME280;48558;48.242;11.654;2023-03-19T21:59:17;96396.09;;;9.03;100.00
62510;BME280;48558;48.242;11.654;2023-03-19T22:03:31;96414.75;;;8.99;100.00
62510;BME280;48558;48.242;11.654;2023-03-19T22:07:44;96404.41;;;9.12;100.00
62510;BME280;48558;48.242;11.654;2023-03-19T22:11:56;96414.94;;;9.04;100.00
62510;BME280;48558;48.242;11.654;2023-03-19T22:16:17;96414.03;;;9.07;100.00
62510;BME280;48558;48.242;11.654;2023-03-19T22:20:32;96417.88;;;9.10;100.00
62510;BME280;48558;48.242;11.654;2023-03-19T22:24:54;96421.25;;;9.14;100.00
62510;BME280;48558;48.242;11.654;2023-03-19T22:33:30;96424.75;;;9.05;100.00
62510;BME280;48558;48.242;11.654;2023-03-19T22:37:43;96405.59;;;9.02;100.00
62510;BME280;48558;48.242;11.654;2023-03-19T22:41:56;96425.84;;;9.08;100.00
62510;BME280;48558;48.242;11.654;2023-03-19T22:46:11;96421.72;;;9.12;100.00
62510;BME280;48558;48.242;11.654;2023-03-19T22:50:28;96425.19;;;9.04;100.00
62510;BME280;48558;48.242;11.654;2023-03-19T22:54:42;96429.28;;;9.21;100.00
62510;BME280;48558;48.242;11.654;2023-03-19T22:58:54;96411.97;;;9.20;100.00
62510;BME280;48558;48.242;11.654;2023-03-19T23:03:15;96421.97;;;9.05;100.00
62510;BME280;48558;48.242;11.654;2023-03-19T23:07:51;96407.25;;;8.99;100.00
62510;BME280;48558;48.242;11.654;2023-03-19T23:12:05;96422.75;;;9.06;100.00
62510;BME280;48558;48.242;11.654;2023-03-19T23:16:20;96421.50;;;8.98;100.00
62510;BME280;48558;48.242;11.654;2023-03-19T23:20:35;96420.47;;;9.04;100.00
62510;BME280;48558;48.242;11.654;2023-03-19T23:24:48;96430.44;;;9.11;100.00
62510;BME280;48558;48.242;11.654;2023-03-19T23:29:02;96421.59;;;9.16;100.00
62510;BME280;48558;48.242;11.654;2023-03-19T23:33:17;96428.22;;;8.97;100.00
62510;BME280;48558;48.242;11.654;2023-03-19T23:37:31;96423.72;;;9.12;100.00
62510;BME280;48558;48.242;11.654;2023-03-19T23:41:46;96422.13;;;9.02;100.00
62510;BME280;48558;48.242;11.654;2023-03-19T23:46:00;96422.44;;;9.04;100.00
62510;BME280;48558;48.242;11.654;2023-03-19T23:50:13;96430.97;;;8.97;100.00